AUA089 LFMN-LOWI
Flight info
| Callsign | AUA089 |
|---|---|
| Flight time | 0h 51m |
| Altitude | 38000 |
| Route | BASIP DCT ANAKI DCT TAGIP DCT NAXAV/N0369F200 DCT EKPIS/N0349F160 M726 BRENO BRENO4B |
| Aircraft | A20N/M-SDE2E3FGHIRWXY/LB1 |
Departure
| Time | 2026-05-07 13:07 |
|---|---|
| Airport | Nice-Côte d'Azur Airport (LFMN) |
Arrival
| Time | 2026-05-07 13:58 |
|---|---|
| Airport | Innsbruck Airport (LOWI) |
| Time | Latitude | Longitude | Altitude | Speed | Heading |
|---|---|---|---|---|---|
| 2026-05-07 12:41 | 43.66606 | 7.21656 | 37 ft | 0 kts | 242° |
| 2026-05-07 13:01 | 43.66604 | 7.21653 | 37 ft | 2 kts | 234° |
| 2026-05-07 13:01 | 43.66596 | 7.21667 | 37 ft | 6 kts | 103° |
| 2026-05-07 13:01 | 43.66551 | 7.21720 | 35 ft | 11 kts | 194° |
| 2026-05-07 13:02 | 43.66491 | 7.21642 | 37 ft | 11 kts | 226° |
| 2026-05-07 13:02 | 43.66429 | 7.21558 | 37 ft | 13 kts | 224° |
| 2026-05-07 13:02 | 43.66347 | 7.21575 | 36 ft | 14 kts | 130° |
| 2026-05-07 13:02 | 43.66257 | 7.21564 | 34 ft | 16 kts | 225° |
| 2026-05-07 13:03 | 43.66154 | 7.21421 | 33 ft | 22 kts | 225° |
| 2026-05-07 13:03 | 43.66036 | 7.21259 | 31 ft | 23 kts | 224° |
| 2026-05-07 13:03 | 43.65911 | 7.21092 | 28 ft | 24 kts | 224° |
| 2026-05-07 13:03 | 43.65783 | 7.20913 | 26 ft | 26 kts | 220° |
| 2026-05-07 13:04 | 43.65603 | 7.20911 | 25 ft | 26 kts | 169° |
| 2026-05-07 13:04 | 43.65418 | 7.20948 | 24 ft | 25 kts | 169° |
| 2026-05-07 13:04 | 43.65272 | 7.20848 | 24 ft | 23 kts | 225° |
| 2026-05-07 13:04 | 43.65153 | 7.20687 | 23 ft | 23 kts | 224° |
| 2026-05-07 13:05 | 43.65033 | 7.20521 | 20 ft | 23 kts | 225° |
| 2026-05-07 13:05 | 43.64916 | 7.20359 | 20 ft | 22 kts | 224° |
| 2026-05-07 13:05 | 43.64807 | 7.20272 | 19 ft | 14 kts | 156° |
| 2026-05-07 13:05 | 43.64773 | 7.20385 | 20 ft | 13 kts | 53° |
| 2026-05-07 13:06 | 43.64798 | 7.20418 | 20 ft | 0 kts | 44° |
| 2026-05-07 13:06 | 43.64820 | 7.20448 | 20 ft | 26 kts | 44° |
| 2026-05-07 13:06 | 43.65153 | 7.20909 | 24 ft | 102 kts | 45° |
| 2026-05-07 13:06 | 43.65827 | 7.21835 | 25 ft | 161 kts | 45° |
| 2026-05-07 13:07 | 43.66703 | 7.23001 | 486 ft | 173 kts | 46° |
| 2026-05-07 13:07 | 43.67301 | 7.24417 | 1192 ft | 169 kts | 89° |
| 2026-05-07 13:07 | 43.66855 | 7.25916 | 1747 ft | 174 kts | 130° |
| 2026-05-07 13:07 | 43.65993 | 7.27268 | 2155 ft | 193 kts | 132° |
| 2026-05-07 13:08 | 43.65020 | 7.28779 | 2581 ft | 214 kts | 132° |
| 2026-05-07 13:08 | 43.63975 | 7.30412 | 3260 ft | 224 kts | 128° |
| 2026-05-07 13:08 | 43.63285 | 7.32402 | 4065 ft | 228 kts | 97° |
| 2026-05-07 13:08 | 43.63472 | 7.34646 | 4895 ft | 231 kts | 71° |
| 2026-05-07 13:09 | 43.64077 | 7.36775 | 5708 ft | 235 kts | 66° |
| 2026-05-07 13:09 | 43.64751 | 7.38970 | 6299 ft | 250 kts | 67° |
| 2026-05-07 13:09 | 43.65446 | 7.41370 | 6814 ft | 269 kts | 69° |
| 2026-05-07 13:09 | 43.66140 | 7.43910 | 7442 ft | 282 kts | 69° |
| 2026-05-07 13:10 | 43.66847 | 7.46574 | 8308 ft | 288 kts | 70° |
| 2026-05-07 13:10 | 43.67547 | 7.49242 | 9163 ft | 292 kts | 69° |
| 2026-05-07 13:10 | 43.68270 | 7.51969 | 9978 ft | 296 kts | 69° |
| 2026-05-07 13:10 | 43.69022 | 7.54789 | 10605 ft | 308 kts | 69° |
| 2026-05-07 13:11 | 43.69799 | 7.57702 | 11044 ft | 327 kts | 69° |
| 2026-05-07 13:11 | 43.70627 | 7.60820 | 11458 ft | 345 kts | 69° |
| 2026-05-07 13:11 | 43.71502 | 7.64123 | 11810 ft | 364 kts | 69° |
| 2026-05-07 13:11 | 43.72445 | 7.67640 | 12124 ft | 382 kts | 68° |
| 2026-05-07 13:12 | 43.73680 | 7.71120 | 12405 ft | 398 kts | 59° |
| 2026-05-07 13:12 | 43.75330 | 7.74404 | 12691 ft | 413 kts | 50° |
| 2026-05-07 13:12 | 43.77314 | 7.77584 | 13038 ft | 426 kts | 48° |
| 2026-05-07 13:12 | 43.79371 | 7.80751 | 13729 ft | 428 kts | 47° |
| 2026-05-07 13:13 | 43.81423 | 7.83925 | 14397 ft | 430 kts | 47° |
| 2026-05-07 13:13 | 43.83458 | 7.87099 | 14970 ft | 435 kts | 48° |
| 2026-05-07 13:13 | 43.85529 | 7.90350 | 15538 ft | 439 kts | 48° |
| 2026-05-07 13:13 | 43.87585 | 7.93703 | 16085 ft | 444 kts | 51° |
| 2026-05-07 13:14 | 43.89491 | 7.97261 | 16620 ft | 449 kts | 54° |
| 2026-05-07 13:14 | 43.91229 | 8.01044 | 17131 ft | 453 kts | 58° |
| 2026-05-07 13:14 | 43.92871 | 8.04998 | 17639 ft | 458 kts | 59° |
| 2026-05-07 13:14 | 43.94483 | 8.08968 | 18105 ft | 462 kts | 60° |
| 2026-05-07 13:15 | 43.96113 | 8.12994 | 18596 ft | 466 kts | 60° |
| 2026-05-07 13:15 | 43.97767 | 8.17080 | 19072 ft | 469 kts | 60° |
| 2026-05-07 13:15 | 43.99419 | 8.21161 | 19536 ft | 473 kts | 59° |
| 2026-05-07 13:15 | 44.01083 | 8.25267 | 19969 ft | 477 kts | 59° |
| 2026-05-07 13:16 | 44.02760 | 8.29406 | 20400 ft | 480 kts | 59° |
| 2026-05-07 13:16 | 44.04443 | 8.33560 | 20796 ft | 485 kts | 59° |
| 2026-05-07 13:16 | 44.06144 | 8.37769 | 21202 ft | 488 kts | 59° |
| 2026-05-07 13:16 | 44.07855 | 8.42010 | 21592 ft | 492 kts | 59° |
| 2026-05-07 13:17 | 44.09575 | 8.46277 | 21932 ft | 496 kts | 59° |
| 2026-05-07 13:17 | 44.11307 | 8.50580 | 22293 ft | 499 kts | 59° |
| 2026-05-07 13:17 | 44.13042 | 8.54898 | 22630 ft | 502 kts | 59° |
| 2026-05-07 13:17 | 44.14807 | 8.59294 | 22939 ft | 505 kts | 59° |
| 2026-05-07 13:18 | 44.16565 | 8.63686 | 23257 ft | 507 kts | 59° |
| 2026-05-07 13:18 | 44.18393 | 8.68087 | 23534 ft | 509 kts | 56° |
| 2026-05-07 13:18 | 44.20546 | 8.72143 | 23791 ft | 510 kts | 48° |
| 2026-05-07 13:18 | 44.23077 | 8.75800 | 24025 ft | 510 kts | 40° |
| 2026-05-07 13:19 | 44.25841 | 8.79009 | 24253 ft | 511 kts | 36° |
| 2026-05-07 13:19 | 44.28730 | 8.82158 | 24484 ft | 512 kts | 35° |
| 2026-05-07 13:19 | 44.31613 | 8.85257 | 24678 ft | 514 kts | 35° |
| 2026-05-07 13:19 | 44.34550 | 8.88427 | 24861 ft | 516 kts | 35° |
| 2026-05-07 13:20 | 44.37449 | 8.91577 | 25050 ft | 518 kts | 35° |
| 2026-05-07 13:20 | 44.40389 | 8.94785 | 25239 ft | 519 kts | 35° |
| 2026-05-07 13:20 | 44.43307 | 8.97985 | 25476 ft | 519 kts | 35° |
| 2026-05-07 13:20 | 44.46214 | 9.01183 | 25708 ft | 519 kts | 35° |
| 2026-05-07 13:21 | 44.49123 | 9.04389 | 25926 ft | 519 kts | 35° |
| 2026-05-07 13:21 | 44.52030 | 9.07600 | 26119 ft | 519 kts | 35° |
| 2026-05-07 13:21 | 44.54953 | 9.10833 | 26332 ft | 520 kts | 34° |
| 2026-05-07 13:21 | 44.57857 | 9.14048 | 26538 ft | 520 kts | 34° |
| 2026-05-07 13:22 | 44.60786 | 9.17295 | 26739 ft | 520 kts | 35° |
| 2026-05-07 13:22 | 44.63714 | 9.20547 | 27040 ft | 518 kts | 34° |
| 2026-05-07 13:22 | 44.66581 | 9.23737 | 27519 ft | 513 kts | 34° |
| 2026-05-07 13:22 | 44.69461 | 9.26947 | 27894 ft | 511 kts | 34° |
| 2026-05-07 13:23 | 44.72308 | 9.30121 | 28150 ft | 512 kts | 34° |
| 2026-05-07 13:23 | 44.75204 | 9.33351 | 28402 ft | 513 kts | 34° |
| 2026-05-07 13:23 | 44.78089 | 9.36572 | 28658 ft | 514 kts | 34° |
| 2026-05-07 13:23 | 44.80986 | 9.39814 | 28929 ft | 514 kts | 34° |
| 2026-05-07 13:24 | 44.83817 | 9.42986 | 29225 ft | 514 kts | 34° |
| 2026-05-07 13:24 | 44.86714 | 9.46236 | 29503 ft | 514 kts | 34° |
| 2026-05-07 13:24 | 44.89613 | 9.49494 | 29786 ft | 515 kts | 34° |
| 2026-05-07 13:24 | 44.92454 | 9.52690 | 30039 ft | 515 kts | 34° |
| 2026-05-07 13:25 | 44.95321 | 9.55920 | 30286 ft | 516 kts | 33° |
| 2026-05-07 13:25 | 44.98206 | 9.59175 | 30536 ft | 516 kts | 33° |
| 2026-05-07 13:25 | 45.01084 | 9.62426 | 30815 ft | 516 kts | 33° |
| 2026-05-07 13:25 | 45.03993 | 9.65714 | 31114 ft | 515 kts | 34° |
| 2026-05-07 13:26 | 45.06814 | 9.68907 | 31389 ft | 514 kts | 34° |
| 2026-05-07 13:26 | 45.09708 | 9.72189 | 31648 ft | 514 kts | 34° |
| 2026-05-07 13:26 | 45.12551 | 9.75417 | 31884 ft | 514 kts | 34° |
| 2026-05-07 13:26 | 45.15400 | 9.78654 | 32110 ft | 514 kts | 34° |
| 2026-05-07 13:27 | 45.18257 | 9.81908 | 32374 ft | 513 kts | 34° |
| 2026-05-07 13:27 | 45.21105 | 9.85154 | 32596 ft | 512 kts | 34° |
| 2026-05-07 13:27 | 45.23946 | 9.88397 | 32832 ft | 511 kts | 34° |
| 2026-05-07 13:27 | 45.26780 | 9.91636 | 33081 ft | 510 kts | 34° |
| 2026-05-07 13:28 | 45.29612 | 9.94879 | 33295 ft | 509 kts | 35° |
| 2026-05-07 13:28 | 45.32439 | 9.98118 | 33491 ft | 509 kts | 34° |
| 2026-05-07 13:28 | 45.35247 | 10.01339 | 33675 ft | 509 kts | 34° |
| 2026-05-07 13:28 | 45.38086 | 10.04602 | 33830 ft | 510 kts | 34° |
| 2026-05-07 13:29 | 45.40893 | 10.07831 | 34020 ft | 509 kts | 35° |
| 2026-05-07 13:29 | 45.43714 | 10.11080 | 34241 ft | 508 kts | 35° |
| 2026-05-07 13:29 | 45.46530 | 10.14331 | 34413 ft | 507 kts | 35° |
| 2026-05-07 13:29 | 45.49324 | 10.17558 | 34585 ft | 507 kts | 35° |
| 2026-05-07 13:30 | 45.52129 | 10.20799 | 34744 ft | 506 kts | 35° |
| 2026-05-07 13:30 | 45.54932 | 10.24047 | 34922 ft | 505 kts | 35° |
| 2026-05-07 13:30 | 45.60470 | 10.30476 | 35197 ft | 505 kts | 35° |
| 2026-05-07 13:31 | 45.63264 | 10.33724 | 35361 ft | 504 kts | 35° |
| 2026-05-07 13:31 | 45.66051 | 10.36970 | 35531 ft | 503 kts | 36° |
| 2026-05-07 13:31 | 45.68826 | 10.40206 | 35687 ft | 503 kts | 36° |
| 2026-05-07 13:31 | 45.71609 | 10.43455 | 35785 ft | 504 kts | 36° |
| 2026-05-07 13:32 | 45.77188 | 10.49979 | 35827 ft | 508 kts | 36° |
| 2026-05-07 13:32 | 45.82786 | 10.56546 | 35988 ft | 509 kts | 36° |
| 2026-05-07 13:33 | 45.88400 | 10.63151 | 35981 ft | 507 kts | 36° |
| 2026-05-07 13:33 | 45.93966 | 10.69717 | 35990 ft | 507 kts | 37° |
| 2026-05-07 13:34 | 46.02374 | 10.79633 | 35983 ft | 507 kts | 37° |
| 2026-05-07 13:35 | 46.07945 | 10.86225 | 35974 ft | 507 kts | 37° |
| 2026-05-07 13:35 | 46.13498 | 10.92816 | 35983 ft | 507 kts | 37° |
| 2026-05-07 13:36 | 46.19070 | 10.99447 | 35992 ft | 507 kts | 37° |
| 2026-05-07 13:36 | 46.24618 | 11.06068 | 35998 ft | 507 kts | 37° |
| 2026-05-07 13:37 | 46.30182 | 11.12729 | 36006 ft | 507 kts | 37° |
| 2026-05-07 13:37 | 46.35753 | 11.19413 | 35827 ft | 506 kts | 37° |
| 2026-05-07 13:37 | 46.38524 | 11.22749 | 35383 ft | 501 kts | 37° |
| 2026-05-07 13:38 | 46.41260 | 11.25969 | 34747 ft | 498 kts | 33° |
| 2026-05-07 13:38 | 46.44263 | 11.28770 | 33962 ft | 496 kts | 24° |
| 2026-05-07 13:38 | 46.47447 | 11.30899 | 33278 ft | 493 kts | 16° |
| 2026-05-07 13:38 | 46.50781 | 11.32363 | 32637 ft | 488 kts | 8° |
| 2026-05-07 13:39 | 46.54252 | 11.33166 | 31885 ft | 482 kts | 1° |
| 2026-05-07 13:39 | 46.57652 | 11.33547 | 31109 ft | 480 kts | 360° |
| 2026-05-07 13:39 | 46.61077 | 11.33844 | 30252 ft | 480 kts | 0° |
| 2026-05-07 13:39 | 46.64503 | 11.34141 | 29270 ft | 480 kts | 0° |
| 2026-05-07 13:40 | 46.67945 | 11.34464 | 28353 ft | 480 kts | 1° |
| 2026-05-07 13:40 | 46.71375 | 11.34803 | 27494 ft | 482 kts | 1° |
| 2026-05-07 13:40 | 46.74799 | 11.35152 | 26661 ft | 482 kts | 2° |
| 2026-05-07 13:40 | 46.78236 | 11.35506 | 26068 ft | 483 kts | 2° |
| 2026-05-07 13:41 | 46.81741 | 11.35880 | 25569 ft | 483 kts | 2° |
| 2026-05-07 13:41 | 46.85173 | 11.36259 | 25079 ft | 484 kts | 2° |
| 2026-05-07 13:41 | 46.88619 | 11.36641 | 24610 ft | 483 kts | 3° |
| 2026-05-07 13:41 | 46.92054 | 11.37016 | 23838 ft | 479 kts | 2° |
| 2026-05-07 13:42 | 46.95437 | 11.36675 | 22950 ft | 473 kts | 344° |
| 2026-05-07 13:42 | 46.98495 | 11.34642 | 22309 ft | 465 kts | 323° |
| 2026-05-07 13:42 | 47.00792 | 11.31181 | 21884 ft | 458 kts | 302° |
| 2026-05-07 13:42 | 47.02111 | 11.26814 | 21513 ft | 454 kts | 286° |
| 2026-05-07 13:43 | 47.02963 | 11.22281 | 21157 ft | 448 kts | 284° |
| 2026-05-07 13:43 | 47.03826 | 11.17798 | 20378 ft | 444 kts | 286° |
| 2026-05-07 13:43 | 47.04781 | 11.13408 | 19560 ft | 439 kts | 288° |
| 2026-05-07 13:43 | 47.05816 | 11.09068 | 18911 ft | 436 kts | 289° |
| 2026-05-07 13:44 | 47.06895 | 11.04791 | 18300 ft | 433 kts | 290° |
| 2026-05-07 13:44 | 47.07999 | 11.00530 | 17728 ft | 426 kts | 291° |
| 2026-05-07 13:44 | 47.09084 | 10.96402 | 17176 ft | 415 kts | 291° |
| 2026-05-07 13:44 | 47.10130 | 10.92442 | 16596 ft | 399 kts | 291° |
| 2026-05-07 13:45 | 47.11138 | 10.88627 | 16040 ft | 381 kts | 291° |
| 2026-05-07 13:45 | 47.12104 | 10.84974 | 15532 ft | 370 kts | 291° |
| 2026-05-07 13:45 | 47.13045 | 10.81408 | 15004 ft | 364 kts | 291° |
| 2026-05-07 13:45 | 47.13987 | 10.77834 | 14484 ft | 360 kts | 291° |
| 2026-05-07 13:46 | 47.14905 | 10.74342 | 14109 ft | 351 kts | 291° |
| 2026-05-07 13:46 | 47.15795 | 10.70960 | 14086 ft | 334 kts | 291° |
| 2026-05-07 13:46 | 47.16695 | 10.67825 | 14075 ft | 317 kts | 300° |
| 2026-05-07 13:46 | 47.18160 | 10.65356 | 14013 ft | 305 kts | 322° |
| 2026-05-07 13:47 | 47.19999 | 10.63751 | 13889 ft | 294 kts | 331° |
| 2026-05-07 13:47 | 47.21834 | 10.62345 | 13789 ft | 283 kts | 331° |
| 2026-05-07 13:47 | 47.23605 | 10.60984 | 13694 ft | 271 kts | 330° |
| 2026-05-07 13:47 | 47.25264 | 10.59703 | 13585 ft | 260 kts | 334° |
| 2026-05-07 13:48 | 47.27050 | 10.59139 | 13416 ft | 255 kts | 7° |
| 2026-05-07 13:48 | 47.28658 | 10.60225 | 13242 ft | 250 kts | 46° |
| 2026-05-07 13:48 | 47.29454 | 10.62534 | 13071 ft | 242 kts | 84° |
| 2026-05-07 13:48 | 47.29436 | 10.65035 | 13082 ft | 236 kts | 94° |
| 2026-05-07 13:49 | 47.29348 | 10.67472 | 12762 ft | 230 kts | 91° |
| 2026-05-07 13:49 | 47.29346 | 10.69897 | 12245 ft | 227 kts | 88° |
| 2026-05-07 13:49 | 47.29399 | 10.72237 | 11846 ft | 220 kts | 87° |
| 2026-05-07 13:49 | 47.29480 | 10.74513 | 11442 ft | 213 kts | 86° |
| 2026-05-07 13:50 | 47.29574 | 10.76722 | 11093 ft | 205 kts | 85° |
| 2026-05-07 13:50 | 47.29669 | 10.78810 | 10805 ft | 197 kts | 85° |
| 2026-05-07 13:50 | 47.29766 | 10.80850 | 10495 ft | 191 kts | 84° |
| 2026-05-07 13:50 | 47.29861 | 10.82811 | 10184 ft | 185 kts | 84° |
| 2026-05-07 13:51 | 47.29964 | 10.84851 | 9912 ft | 205 kts | 84° |
| 2026-05-07 13:51 | 47.30074 | 10.87032 | 9570 ft | 209 kts | 84° |
| 2026-05-07 13:51 | 47.30181 | 10.89215 | 9220 ft | 207 kts | 84° |
| 2026-05-07 13:51 | 47.30285 | 10.91358 | 8931 ft | 200 kts | 83° |
| 2026-05-07 13:52 | 47.30388 | 10.93462 | 8652 ft | 199 kts | 83° |
| 2026-05-07 13:52 | 47.30489 | 10.95517 | 8363 ft | 198 kts | 84° |
| 2026-05-07 13:52 | 47.30591 | 10.97616 | 8071 ft | 198 kts | 84° |
| 2026-05-07 13:52 | 47.30691 | 10.99685 | 7789 ft | 197 kts | 83° |
| 2026-05-07 13:53 | 47.30790 | 11.01742 | 7502 ft | 197 kts | 83° |
| 2026-05-07 13:53 | 47.30891 | 11.03820 | 7026 ft | 201 kts | 84° |
| 2026-05-07 13:53 | 47.30978 | 11.05913 | 6620 ft | 198 kts | 89° |
| 2026-05-07 13:53 | 47.30764 | 11.07966 | 6275 ft | 199 kts | 106° |
| 2026-05-07 13:54 | 47.30216 | 11.09878 | 5943 ft | 198 kts | 114° |
| 2026-05-07 13:54 | 47.29593 | 11.11734 | 5611 ft | 196 kts | 115° |
| 2026-05-07 13:54 | 47.28962 | 11.13580 | 5286 ft | 194 kts | 115° |
| 2026-05-07 13:54 | 47.28348 | 11.15395 | 4967 ft | 192 kts | 114° |
| 2026-05-07 13:55 | 47.27758 | 11.17162 | 4686 ft | 183 kts | 114° |
| 2026-05-07 13:55 | 47.27195 | 11.18860 | 4367 ft | 179 kts | 114° |
| 2026-05-07 13:55 | 47.26642 | 11.20538 | 4068 ft | 179 kts | 114° |
| 2026-05-07 13:55 | 47.26085 | 11.22233 | 3781 ft | 175 kts | 114° |
| 2026-05-07 13:56 | 47.25558 | 11.23833 | 3507 ft | 166 kts | 114° |
| 2026-05-07 13:56 | 47.25192 | 11.25428 | 3208 ft | 154 kts | 97° |
| 2026-05-07 13:56 | 47.25180 | 11.26964 | 2957 ft | 147 kts | 81° |
| 2026-05-07 13:56 | 47.25367 | 11.28458 | 2734 ft | 142 kts | 78° |
| 2026-05-07 13:57 | 47.25543 | 11.29903 | 2495 ft | 137 kts | 79° |
| 2026-05-07 13:57 | 47.25694 | 11.31286 | 2250 ft | 135 kts | 81° |
| 2026-05-07 13:57 | 47.25839 | 11.32687 | 2059 ft | 137 kts | 82° |
| 2026-05-07 13:57 | 47.25984 | 11.34056 | 1922 ft | 125 kts | 77° |
| 2026-05-07 13:58 | 47.26101 | 11.35110 | 1911 ft | 77 kts | 82° |
| 2026-05-07 13:58 | 47.26136 | 11.35575 | 1907 ft | 19 kts | 98° |
| 2026-05-07 13:58 | 47.26164 | 11.35638 | 1907 ft | 14 kts | 309° |
| 2026-05-07 13:58 | 47.26145 | 11.35521 | 1907 ft | 16 kts | 265° |
| 2026-05-07 13:59 | 47.26122 | 11.35338 | 1910 ft | 17 kts | 257° |
| 2026-05-07 13:59 | 47.26046 | 11.35260 | 1910 ft | 14 kts | 169° |
| 2026-05-07 13:59 | 47.25950 | 11.35289 | 1910 ft | 13 kts | 168° |
| 2026-05-07 13:59 | 47.25893 | 11.35229 | 1910 ft | 10 kts | 266° |
| 2026-05-07 14:00 | 47.25883 | 11.35114 | 1911 ft | 10 kts | 262° |
| 2026-05-07 14:00 | 47.25850 | 11.35048 | 1910 ft | 4 kts | 173° |
| 2026-05-07 14:00 | 47.25826 | 11.35056 | 1910 ft | 0 kts | 168° |
| 2026-05-07 14:00 | 47.25824 | 11.35057 | 1910 ft | 0 kts | 168° |
| 2026-05-07 14:01 | 47.25823 | 11.35057 | 1910 ft | 0 kts | 168° |